createdAt,value
2022-11-17T00:01:30.598Z,16.730258
2022-11-17T00:06:32.388Z,15.19808
2022-11-17T00:11:34.294Z,15.825224
2022-11-17T00:16:36.318Z,16.494134
2022-11-17T00:21:37.962Z,17.160142
2022-11-17T00:26:39.476Z,16.729824
2022-11-17T00:31:41.324Z,16.05482
2022-11-17T00:36:42.759Z,15.917916
2022-11-17T00:41:44.244Z,16.944318
2022-11-17T00:46:45.819Z,14.970694
2022-11-17T00:51:47.279Z,14.91297
2022-11-17T00:56:48.952Z,14.50226
2022-11-17T01:01:50.872Z,16.09348
2022-11-17T01:06:52.660Z,15.899638
2022-11-17T01:11:54.181Z,15.32448
2022-11-17T01:16:55.970Z,15.079794
2022-11-17T01:21:57.539Z,16.318042
2022-11-17T01:26:59.030Z,14.853738
2022-11-17T01:32:00.878Z,16.198956
2022-11-17T01:37:02.714Z,16.444714
2022-11-17T01:42:04.687Z,15.61594
2022-11-17T01:52:17.017Z,15.76591
2022-11-17T01:57:18.556Z,16.093398
2022-11-17T02:02:20.504Z,15.742964
2022-11-17T02:07:22.424Z,16.397478
2022-11-17T02:12:23.999Z,15.756466
2022-11-17T02:17:25.478Z,16.504556
2022-11-17T02:22:27.192Z,16.23383
2022-11-17T02:27:29.121Z,16.46192
2022-11-17T02:32:31.069Z,15.743928
2022-11-17T02:37:32.971Z,15.838562
2022-11-17T02:42:34.464Z,15.59644
2022-11-17T02:47:36.563Z,15.576846
2022-11-17T02:52:38.639Z,16.25607
2022-11-17T02:57:40.336Z,15.508428
2022-11-17T03:02:42.124Z,15.66114
2022-11-17T03:07:44.011Z,16.106628
2022-11-17T03:12:45.488Z,16.099572
2022-11-17T03:17:47.006Z,15.608788
2022-11-17T03:22:48.462Z,15.85418
2022-11-17T03:27:50.231Z,15.558486
2022-11-17T03:32:51.870Z,15.989496
2022-11-17T03:37:53.463Z,15.801924
2022-11-17T03:42:55.165Z,15.614528
2022-11-17T03:47:56.984Z,16.17734
2022-11-17T03:52:58.838Z,16.40851
2022-11-17T03:58:00.705Z,16.415132
2022-11-17T04:03:02.902Z,15.925678
2022-11-17T04:08:04.965Z,16.763802
2022-11-17T04:13:06.845Z,16.558576
2022-11-17T04:18:08.702Z,17.075834
2022-11-17T04:23:10.647Z,16.969028
2022-11-17T04:28:12.467Z,17.234028
2022-11-17T04:33:14.473Z,17.976568
2022-11-17T04:38:16.284Z,18.4077
2022-11-17T04:43:18.119Z,19.104606
2022-11-17T04:48:20.130Z,19.562742
2022-11-17T04:53:21.932Z,20.087532
2022-11-17T04:58:23.873Z,20.270192
2022-11-17T05:03:26.162Z,20.985648
2022-11-17T05:08:28.063Z,21.144914
2022-11-17T05:13:29.828Z,22.094758
2022-11-17T05:18:31.786Z,22.181712
2022-11-17T05:23:34.109Z,22.905758
2022-11-17T05:28:36.246Z,23.438514
2022-11-17T05:33:38.194Z,23.222432
2022-11-17T05:38:39.791Z,23.796616
2022-11-17T05:43:41.541Z,24.738536
2022-11-17T05:48:43.036Z,24.773206
2022-11-17T05:53:44.771Z,25.889686
2022-11-17T05:58:46.440Z,25.269528
2022-11-17T06:03:48.536Z,25.355166
2022-11-17T06:08:50.442Z,25.38453
2022-11-17T06:13:52.145Z,26.174146
2022-11-17T06:18:53.945Z,25.316276
2022-11-17T06:23:56.112Z,26.634726
2022-11-17T06:28:57.887Z,25.961158
2022-11-17T06:33:59.809Z,26.562332
2022-11-17T06:39:01.885Z,26.368762
2022-11-17T06:44:03.990Z,27.005028
2022-11-17T06:49:05.874Z,26.870878
2022-11-17T06:54:07.881Z,26.700932
2022-11-17T06:59:09.886Z,27.228166
2022-11-17T07:04:11.904Z,27.426798
2022-11-17T07:09:13.755Z,27.958686
2022-11-17T07:14:15.564Z,27.345584
2022-11-17T07:19:17.688Z,28.312894
2022-11-17T07:24:19.586Z,28.655432
2022-11-17T07:29:21.640Z,28.448414
2022-11-17T07:34:23.674Z,28.646164
2022-11-17T07:39:25.543Z,28.571124
2022-11-17T07:44:27.349Z,28.946528
2022-11-17T07:49:28.904Z,28.552996
2022-11-17T07:54:30.914Z,29.262334
2022-11-17T07:59:32.926Z,29.162814
2022-11-17T08:04:35.003Z,29.804834
2022-11-17T08:09:36.835Z,29.756716
2022-11-17T08:14:38.641Z,30.911234
2022-11-17T08:19:40.491Z,30.432728
2022-11-17T08:24:42.352Z,29.985364
2022-11-17T08:29:44.091Z,30.259484
2022-11-17T08:34:45.982Z,30.571994
2022-11-17T08:39:47.659Z,30.217106
2022-11-17T08:44:49.380Z,30.52013
2022-11-17T08:49:50.959Z,30.596052
2022-11-17T08:54:52.799Z,30.251968
2022-11-17T08:59:54.415Z,30.97721
2022-11-17T09:04:56.406Z,30.931968
2022-11-17T09:09:58.420Z,30.88054
2022-11-17T09:15:00.420Z,31.26281
2022-11-17T09:20:01.992Z,30.939472
2022-11-17T09:25:07.473Z,31.200362
2022-11-17T09:30:12.022Z,30.16169
2022-11-17T09:35:13.768Z,31.270532
2022-11-17T09:40:15.737Z,30.74125
2022-11-17T09:45:17.183Z,31.728954
2022-11-17T09:50:19.334Z,31.689644
2022-11-17T09:55:21.697Z,31.023768
2022-11-17T10:00:23.352Z,32.146968
2022-11-17T10:05:25.727Z,30.78828
2022-11-17T10:10:27.445Z,32.00462
2022-11-17T10:15:29.232Z,32.716404
2022-11-17T10:20:30.988Z,32.80557
2022-11-17T10:25:32.635Z,31.788526
2022-11-17T10:30:34.855Z,31.892266
2022-11-17T10:35:36.474Z,32.446694
2022-11-17T10:40:38.097Z,31.589024
2022-11-17T10:45:39.652Z,32.481338
2022-11-17T10:50:41.489Z,31.579742
2022-11-17T10:55:43.198Z,33.367938
2022-11-17T11:00:45.413Z,32.815938
2022-11-17T11:05:47.309Z,30.681038
2022-11-17T11:10:49.205Z,31.378246
2022-11-17T11:15:51.200Z,31.961118
2022-11-17T11:20:53.017Z,31.966424
2022-11-17T11:25:54.825Z,31.946992
2022-11-17T11:30:56.430Z,30.873036
2022-11-17T11:35:58.542Z,29.643044
2022-11-17T11:41:00.681Z,31.788756
2022-11-17T11:46:02.481Z,31.11581
2022-11-17T11:51:04.337Z,31.170768
2022-11-17T11:56:06.629Z,30.496954
2022-11-17T12:01:08.769Z,30.331214
2022-11-17T12:06:10.591Z,32.102378
2022-11-17T12:11:12.574Z,31.599378
2022-11-17T12:16:14.366Z,32.158434
2022-11-17T12:21:16.293Z,31.897992
2022-11-17T12:26:17.924Z,31.452826
2022-11-17T12:31:19.864Z,32.47648
2022-11-17T12:36:25.521Z,31.943694
2022-11-17T12:41:32.104Z,31.549752
2022-11-17T12:46:33.591Z,30.805934
2022-11-17T12:51:35.511Z,30.293694
2022-11-17T12:56:37.327Z,29.369576
2022-11-17T13:01:39.774Z,31.968188
2022-11-17T13:06:41.880Z,31.714138
2022-11-17T13:11:43.508Z,30.569782
2022-11-17T13:16:45.020Z,30.399836
2022-11-17T13:21:46.517Z,32.039712
2022-11-17T13:26:48.134Z,31.943464
2022-11-17T13:31:49.611Z,30.99443
2022-11-17T13:36:51.262Z,32.045222
2022-11-17T13:41:52.979Z,31.477332
2022-11-17T13:46:54.552Z,31.79626
2022-11-17T13:51:56.501Z,31.8212
2022-11-17T13:56:58.241Z,30.73928
2022-11-17T14:01:59.970Z,31.067246
2022-11-17T14:07:02.152Z,31.307834
2022-11-17T14:12:03.990Z,29.563798
2022-11-17T14:17:05.649Z,30.202086
2022-11-17T14:22:07.572Z,29.551462
2022-11-17T14:27:09.301Z,29.851188
2022-11-17T14:32:11.175Z,28.98622
2022-11-17T14:37:13.175Z,28.846304
2022-11-17T14:42:15.007Z,28.871218
2022-11-17T14:47:16.892Z,29.2067
2022-11-17T14:52:18.668Z,28.250624
2022-11-17T14:57:20.732Z,27.660508
2022-11-17T15:02:22.584Z,28.04826
2022-11-17T15:07:24.709Z,27.64729
2022-11-17T15:12:26.680Z,26.494118
2022-11-17T15:17:28.685Z,26.761168
2022-11-17T15:22:30.636Z,26.688544
2022-11-17T15:27:32.376Z,26.900854
2022-11-17T15:32:34.164Z,26.642638
2022-11-17T15:37:36.369Z,26.295256
2022-11-17T15:42:38.391Z,26.046144
2022-11-17T15:47:40.370Z,24.884246
2022-11-17T15:53:02.859Z,24.317552
2022-11-17T15:58:05.195Z,24.397436
2022-11-17T16:03:06.992Z,23.929082
2022-11-17T16:08:08.772Z,23.800686
2022-11-17T16:13:10.604Z,23.631392
2022-11-17T16:18:12.439Z,23.559446
2022-11-17T16:23:14.351Z,23.186282
2022-11-17T16:28:16.441Z,23.613738
2022-11-17T16:33:18.250Z,23.64929
2022-11-17T16:38:20.429Z,20.257898
2022-11-17T16:43:22.215Z,19.47013
2022-11-17T16:48:24.099Z,19.062826
2022-11-17T16:53:26.160Z,19.153932
2022-11-17T16:58:27.906Z,19.008466
2022-11-17T17:03:29.369Z,19.520378
2022-11-17T17:08:31.002Z,19.954672
2022-11-17T17:13:32.733Z,19.92794
2022-11-17T17:18:34.494Z,19.70259
2022-11-17T17:23:36.264Z,19.803032
2022-11-17T17:28:38.057Z,20.153032
2022-11-17T17:33:39.853Z,20.297548
2022-11-17T17:38:42.043Z,20.089472
2022-11-17T17:43:43.868Z,19.447102
2022-11-17T17:48:45.344Z,19.517026
2022-11-17T17:53:46.846Z,19.426992
2022-11-17T17:58:48.529Z,20.07977
2022-11-17T18:03:50.291Z,20.407258
2022-11-17T18:08:52.207Z,20.008014
2022-11-17T18:13:53.837Z,19.93828
2022-11-17T18:18:55.483Z,19.743638
2022-11-17T18:23:57.188Z,20.144212
2022-11-17T18:28:59.074Z,19.43626
2022-11-17T18:34:00.624Z,19.646602
2022-11-17T18:39:02.735Z,19.955554
2022-11-17T18:44:04.884Z,20.128756
2022-11-17T18:49:06.792Z,19.918482
2022-11-17T18:54:08.708Z,19.919554
2022-11-17T18:59:10.621Z,20.044014
2022-11-17T19:04:12.432Z,20.465526
2022-11-17T19:09:15.043Z,19.64036
2022-11-17T19:14:17.044Z,20.26912
2022-11-17T19:19:19.393Z,20.481158
2022-11-17T19:24:21.439Z,20.174662
2022-11-17T19:29:23.748Z,20.501268
2022-11-17T19:34:25.880Z,20.364704
2022-11-17T19:39:27.914Z,20.488472
2022-11-17T19:44:29.716Z,20.03556
2022-11-17T19:49:31.549Z,20.238846
2022-11-17T19:54:33.322Z,20.210594
2022-11-17T19:59:35.362Z,19.418484
2022-11-17T20:04:37.296Z,20.292758
2022-11-17T20:09:39.222Z,20.875992
2022-11-17T20:14:40.967Z,18.832984
2022-11-17T20:19:42.683Z,19.266152
2022-11-17T20:24:44.271Z,19.888466
2022-11-17T20:29:45.911Z,20.21704
2022-11-17T20:34:47.354Z,20.349004
2022-11-17T20:39:49.002Z,19.592432
2022-11-17T20:44:50.508Z,19.532726
2022-11-17T20:49:52.148Z,19.213366
2022-11-17T20:54:53.839Z,19.43953
2022-11-17T20:59:55.803Z,19.149372
2022-11-17T21:04:57.311Z,19.559648
2022-11-17T21:09:59.245Z,19.043882
2022-11-17T21:15:01.165Z,19.24691
2022-11-17T21:20:02.990Z,18.634122
2022-11-17T21:25:04.821Z,19.374464
2022-11-17T21:30:06.514Z,19.100006
2022-11-17T21:35:08.522Z,18.814814
2022-11-17T21:40:10.460Z,18.894074
2022-11-17T21:45:12.389Z,18.817718
2022-11-17T21:50:14.205Z,18.684424
2022-11-17T21:55:15.970Z,18.382976
2022-11-17T22:00:18.007Z,18.28324
2022-11-17T22:05:19.794Z,18.353408
2022-11-17T22:10:22.400Z,18.478126
2022-11-17T22:15:24.232Z,17.838782
2022-11-17T22:20:27.553Z,18.516976
2022-11-17T22:25:44.905Z,17.779646
2022-11-17T22:30:47.356Z,18.06325
2022-11-17T22:35:49.331Z,18.124422
2022-11-17T22:40:50.953Z,17.656584
2022-11-17T22:45:52.609Z,17.195626
2022-11-17T22:50:54.102Z,17.917066
2022-11-17T22:55:55.703Z,18.218866
2022-11-17T23:00:57.609Z,18.049314
2022-11-17T23:05:59.306Z,18.328698
2022-11-17T23:11:29.479Z,18.439914
2022-11-17T23:16:37.483Z,18.825738
2022-11-17T23:21:39.452Z,18.369814
2022-11-17T23:26:41.290Z,17.74229
2022-11-17T23:31:43.240Z,17.413472
2022-11-17T23:36:45.156Z,17.76833
2022-11-17T23:41:46.926Z,17.399794
2022-11-17T23:46:48.728Z,17.15299
2022-11-17T23:51:50.308Z,17.818998
2022-11-17T23:56:51.889Z,17.947434
